Time;durP1;ratioP1;P1;durP2;ratioP2;P2;SDS_P1;SDS_P2;PMS_P1;PMS_P2;Temp;Humidity;BMP_temperature;BMP_pressure;BME280_temperature;BME280_humidity;BME280_pressure;Samples;Min_cycle;Max_cycle;Signal;HPM_P1;HPM_P2
2023/12/31 00:01:04;;;;;;;29.90;12.50;;;;;;;3.48;90.63;100245.81;110944;1271;22129;-71
2023/12/31 00:03:55;;;;;;;41.50;14.80;;;;;;;3.48;90.66;100245.58;110966;1264;22149;-71
2023/12/31 00:06:45;;;;;;;45.40;19.60;;;;;;;3.47;90.65;100248.75;110942;1268;22130;-73
2023/12/31 00:09:37;;;;;;;47.80;21.10;;;;;;;3.47;90.75;100243.30;110839;1271;22230;-72
2023/12/31 00:12:27;;;;;;;50.60;21.80;;;;;;;3.48;90.78;100231.67;110858;1264;22176;-74
2023/12/31 00:15:18;;;;;;;52.50;24.20;;;;;;;3.48;90.68;100226.86;110815;1264;22607;-71
2023/12/31 00:18:09;;;;;;;52.50;23.50;;;;;;;3.47;90.53;100221.63;110960;1258;22214;-72
2023/12/31 00:20:59;;;;;;;47.70;22.00;;;;;;;3.45;90.39;100219.22;110973;1271;22343;-72
2023/12/31 00:23:50;;;;;;;47.10;20.50;;;;;;;3.43;90.31;100215.34;110955;1264;22172;-71
2023/12/31 00:26:39;;;;;;;;;;;;;;;3.40;90.20;100218.23;110870;1271;102455;-72
2023/12/31 00:29:33;;;;;;;37.50;15.60;;;;;;;3.36;90.08;100219.20;107674;1271;24395;-71
2023/12/31 00:32:24;;;;;;;39.80;15.00;;;;;;;3.32;89.91;100218.19;107668;1264;22652;-71
2023/12/31 00:35:14;;;;;;;33.00;12.60;;;;;;;3.29;89.89;100217.64;107767;1267;25498;-73
2023/12/31 00:38:06;;;;;;;31.30;12.60;;;;;;;3.24;89.75;100216.79;107766;1265;25252;-72
2023/12/31 00:40:57;;;;;;;39.90;13.20;;;;;;;3.20;89.78;100213.03;107722;1268;22938;-71
2023/12/31 00:43:48;;;;;;;33.00;12.10;;;;;;;3.16;89.66;100213.92;107713;1260;22534;-71
2023/12/31 00:46:39;;;;;;;26.60;9.60;;;;;;;3.11;89.56;100213.09;107667;1264;22641;-71
2023/12/31 00:49:30;;;;;;;26.70;9.90;;;;;;;3.06;89.54;100214.30;107439;1270;24247;-71
2023/12/31 00:52:21;;;;;;;26.20;9.60;;;;;;;3.02;89.64;100211.00;107624;1265;22530;-72
2023/12/31 00:55:12;;;;;;;30.40;11.70;;;;;;;2.97;89.49;100209.30;107806;1268;23136;-72
2023/12/31 00:58:04;;;;;;;32.70;10.90;;;;;;;2.93;89.53;100206.25;107859;1260;23069;-74
2023/12/31 01:00:55;;;;;;;28.40;10.10;;;;;;;2.89;89.39;100200.20;107950;1265;25183;-72
2023/12/31 01:03:46;;;;;;;31.30;10.30;;;;;;;2.85;89.38;100201.63;107740;1264;23014;-75
2023/12/31 01:06:35;;;;;;;;;;;;;;;2.81;89.38;100206.60;107834;1271;24021;-72
2023/12/31 01:09:26;;;;;;;30.50;10.30;;;;;;;2.77;89.48;100207.56;107823;1264;22634;-72
2023/12/31 01:12:17;;;;;;;31.40;10.30;;;;;;;2.75;89.59;100205.46;107865;1264;25340;-72
2023/12/31 01:15:10;;;;;;;32.60;12.20;;;;;;;2.73;89.74;100205.81;107838;1264;22699;-72
2023/12/31 01:18:01;;;;;;;29.50;11.70;;;;;;;2.72;89.91;100204.11;107849;1265;25349;-72
2023/12/31 01:20:52;;;;;;;31.40;11.10;;;;;;;2.70;89.92;100204.46;107865;1271;23145;-72
2023/12/31 01:23:43;;;;;;;30.90;11.50;;;;;;;2.69;90.07;100203.23;107700;1261;22658;-72
2023/12/31 01:26:34;;;;;;;29.10;10.80;;;;;;;2.67;90.09;100200.84;107828;1264;22651;-72
2023/12/31 01:29:25;;;;;;;29.00;9.30;;;;;;;2.63;90.22;100197.21;107865;1270;24228;-72
2023/12/31 01:32:15;;;;;;;29.40;9.30;;;;;;;2.62;90.42;100196.86;107741;1265;25789;-73
2023/12/31 01:35:07;;;;;;;26.20;9.40;;;;;;;2.59;90.44;100199.13;107801;1264;22555;-72
2023/12/31 01:37:58;;;;;;;25.30;8.70;;;;;;;2.57;90.56;100204.35;107733;1271;22532;-74
2023/12/31 01:40:55;;;;;;;24.20;8.70;;;;;;;2.57;90.52;100202.07;107712;1271;22649;-74
2023/12/31 01:43:47;;;;;;;27.50;9.70;;;;;;;2.56;90.30;100201.33;107749;1268;22568;-73
2023/12/31 01:46:39;;;;;;;28.20;9.40;;;;;;;2.53;90.22;100204.36;110952;1264;22123;-72
2023/12/31 01:49:30;;;;;;;26.50;8.90;;;;;;;2.52;90.40;100201.09;110830;1270;22116;-72
2023/12/31 01:52:22;;;;;;;29.70;10.10;;;;;;;2.52;90.39;100198.02;110942;1271;22258;-73
2023/12/31 01:55:15;;;;;;;26.80;8.00;;;;;;;2.51;90.26;100199.05;110971;1264;22908;-74
2023/12/31 01:58:06;;;;;;;29.40;10.80;;;;;;;2.51;90.25;100201.66;110945;1268;23181;-75
2023/12/31 02:00:57;;;;;;;28.50;10.60;;;;;;;2.51;90.20;100200.87;110992;1258;22270;-74
2023/12/31 02:03:48;;;;;;;25.40;8.90;;;;;;;2.51;90.17;100194.90;111050;1260;22515;-75
2023/12/31 02:06:41;;;;;;;25.90;9.40;;;;;;;2.50;89.97;100191.67;110953;1271;22153;-73
2023/12/31 02:09:32;;;;;;;29.10;9.10;;;;;;;2.46;89.80;100197.26;110975;1270;22149;-71
2023/12/31 02:12:23;;;;;;;23.90;8.10;;;;;;;2.44;89.94;100193.30;111026;1270;22192;-72
2023/12/31 02:15:14;;;;;;;22.90;8.00;;;;;;;2.43;89.96;100192.21;110942;1264;22464;-72
2023/12/31 02:18:07;;;;;;;28.90;8.60;;;;;;;2.43;89.96;100192.52;110940;1271;22323;-72
2023/12/31 02:20:59;;;;;;;25.40;8.00;;;;;;;2.41;89.92;100186.02;110801;1272;22880;-71
2023/12/31 02:23:50;;;;;;;24.40;7.20;;;;;;;2.40;90.01;100184.54;110805;1273;22164;-72
2023/12/31 02:26:41;;;;;;;22.80;7.00;;;;;;;2.40;89.86;100186.98;110792;1273;22287;-71
2023/12/31 02:29:32;;;;;;;25.40;7.30;;;;;;;2.38;89.75;100186.39;110966;1271;22920;-73
2023/12/31 02:32:22;;;;;;;24.50;6.80;;;;;;;2.35;89.61;100184.09;110973;1271;22195;-71
2023/12/31 02:35:11;;;;;;;;;;;;;;;2.33;89.75;100185.00;110964;1271;23245;-71
2023/12/31 02:38:02;;;;;;;23.80;7.40;;;;;;;2.32;89.54;100185.77;110921;1265;22930;-73
2023/12/31 02:40:53;;;;;;;27.80;9.80;;;;;;;2.28;89.30;100187.09;110936;1265;22187;-71
2023/12/31 02:43:45;;;;;;;23.40;8.40;;;;;;;2.24;89.33;100184.33;110972;1268;22236;-75
2023/12/31 02:46:35;;;;;;;28.20;9.10;;;;;;;2.21;89.23;100183.38;110927;1265;22265;-71
2023/12/31 02:49:26;;;;;;;25.50;8.30;;;;;;;2.19;89.29;100179.80;110970;1271;22205;-72
2023/12/31 02:52:17;;;;;;;23.00;8.60;;;;;;;2.17;89.13;100183.69;110947;1265;22122;-71
2023/12/31 02:55:08;;;;;;;27.30;9.30;;;;;;;2.13;88.91;100176.13;110940;1268;22166;-71
2023/12/31 02:57:59;;;;;;;27.80;9.30;;;;;;;2.09;88.91;100175.35;110963;1271;22232;-71
2023/12/31 03:00:48;;;;;;;;;;;;;;;2.06;88.90;100175.73;110931;1268;23089;-73
2023/12/31 03:03:39;;;;;;;21.20;7.70;;;;;;;2.02;89.01;100173.60;110946;1265;22218;-73
2023/12/31 03:06:29;;;;;;;;;;;;;;;2.01;89.08;100169.67;110960;1263;22338;-72
2023/12/31 03:09:21;;;;;;;25.00;8.00;;;;;;;1.98;89.06;100171.08;110951;1271;22319;-71
2023/12/31 03:12:13;;;;;;;27.50;8.60;;;;;;;1.97;89.12;100171.41;110923;1264;22470;-72
2023/12/31 03:15:05;;;;;;;29.70;8.80;;;;;;;1.95;89.00;100173.41;110933;1271;22142;-74
2023/12/31 03:17:56;;;;;;;22.30;8.60;;;;;;;1.94;89.02;100173.52;110807;1273;22091;-73
2023/12/31 03:20:47;;;;;;;28.30;9.00;;;;;;;1.92;89.10;100169.24;110814;1272;22318;-72
2023/12/31 03:23:39;;;;;;;25.00;7.40;;;;;;;1.90;89.06;100172.80;110847;1260;22234;-72
2023/12/31 03:26:28;;;;;;;;;;;;;;;1.89;89.00;100173.14;110956;1268;22397;-71
2023/12/31 03:29:19;;;;;;;27.60;9.20;;;;;;;1.86;88.89;100178.55;110937;1265;22629;-72
2023/12/31 03:32:11;;;;;;;28.10;9.00;;;;;;;1.84;88.81;100176.15;111008;1270;22247;-72
2023/12/31 03:35:02;;;;;;;25.50;9.10;;;;;;;1.80;88.72;100175.59;110940;1264;22190;-72
2023/12/31 03:37:53;;;;;;;29.40;10.20;;;;;;;1.77;88.70;100172.17;110925;1268;23051;-71
2023/12/31 03:40:44;;;;;;;30.40;10.20;;;;;;;1.75;88.75;100165.61;111001;1268;22239;-72
2023/12/31 03:43:34;;;;;;;28.20;11.70;;;;;;;1.74;88.72;100164.23;110972;1264;22303;-73
2023/12/31 03:46:25;;;;;;;26.60;9.50;;;;;;;1.70;88.68;100162.11;110946;1268;22220;-71
2023/12/31 03:49:16;;;;;;;28.10;11.20;;;;;;;1.68;88.77;100163.30;110981;1268;22305;-73
2023/12/31 03:52:07;;;;;;;28.40;11.10;;;;;;;1.65;88.55;100162.64;111031;1265;22154;-72
2023/12/31 03:54:58;;;;;;;27.80;10.20;;;;;;;1.61;88.50;100159.42;110935;1270;22191;-72
2023/12/31 03:57:49;;;;;;;27.40;11.70;;;;;;;1.59;88.61;100163.93;110990;1268;22149;-73
2023/12/31 04:00:41;;;;;;;31.00;11.30;;;;;;;1.56;88.37;100165.40;110873;1268;22832;-71
2023/12/31 04:03:32;;;;;;;30.30;11.60;;;;;;;1.51;88.43;100169.13;110931;1268;22964;-72
2023/12/31 04:06:23;;;;;;;31.40;10.60;;;;;;;1.49;88.52;100166.02;110913;1270;22258;-71
2023/12/31 04:09:12;;;;;;;;;;;;;;;1.47;88.70;100161.00;110929;1264;22404;-72
2023/12/31 04:12:04;;;;;;;31.00;11.80;;;;;;;1.45;88.71;100158.83;110920;1271;22807;-71
2023/12/31 04:14:55;;;;;;;33.70;12.20;;;;;;;1.43;88.80;100156.67;110740;1273;22276;-71
2023/12/31 04:17:44;;;;;;;;;;;;;;;1.40;88.85;100149.34;110830;1273;22336;-73
2023/12/31 04:20:34;;;;;;;30.50;11.90;;;;;;;1.38;89.00;100151.89;110891;1268;23046;-73
2023/12/31 04:23:25;;;;;;;33.40;12.80;;;;;;;1.36;89.10;100150.36;110910;1268;22926;-72
2023/12/31 04:26:16;;;;;;;34.70;14.20;;;;;;;1.35;89.17;100147.86;110898;1268;22314;-71
2023/12/31 04:29:07;;;;;;;32.10;13.60;;;;;;;1.34;89.26;100151.02;110880;1265;22130;-72
2023/12/31 04:31:58;;;;;;;38.40;15.40;;;;;;;1.33;89.20;100152.14;110875;1265;22321;-73
2023/12/31 04:34:49;;;;;;;34.90;16.10;;;;;;;1.28;89.15;100150.73;110861;1264;22170;-74
2023/12/31 04:37:40;;;;;;;39.10;14.60;;;;;;;1.26;89.21;100142.27;110883;1265;22303;-72
2023/12/31 04:40:29;;;;;;;;;;;;;;;1.25;89.21;100138.77;110916;1268;22393;-72
2023/12/31 04:43:20;;;;;;;38.60;14.60;;;;;;;1.24;89.11;100137.99;110912;1271;22393;-72
2023/12/31 04:46:12;;;;;;;29.70;14.60;;;;;;;1.22;89.01;100139.11;110899;1265;22135;-72
2023/12/31 04:49:03;;;;;;;32.20;13.40;;;;;;;1.20;88.95;100138.38;110930;1268;22142;-72
2023/12/31 04:51:54;;;;;;;36.50;14.50;;;;;;;1.17;88.89;100136.36;111002;1268;22245;-71
2023/12/31 04:54:43;;;;;;;;;;;;;;;1.16;88.97;100125.16;111066;1268;22832;-72
2023/12/31 04:57:33;;;;;;;41.30;16.50;;;;;;;1.14;89.04;100117.64;110941;1264;22100;-71
2023/12/31 05:00:25;;;;;;;43.30;17.60;;;;;;;1.14;89.16;100118.52;110931;1264;22162;-71
2023/12/31 05:03:14;;;;;;;;;;;;;;;1.12;89.42;100116.20;110958;1264;23345;-71
2023/12/31 05:06:05;;;;;;;36.70;16.80;;;;;;;1.10;89.53;100110.89;109549;1271;25335;-71
2023/12/31 05:08:56;;;;;;;32.70;16.30;;;;;;;1.08;89.74;100114.92;107542;1272;22519;-71
2023/12/31 05:11:47;;;;;;;42.40;16.40;;;;;;;1.06;89.68;100111.90;107695;1271;22687;-72
2023/12/31 05:14:38;;;;;;;33.50;15.30;;;;;;;1.04;89.71;100116.40;107570;1273;22600;-73
2023/12/31 05:17:29;;;;;;;39.50;17.30;;;;;;;1.02;89.72;100116.59;107581;1271;22636;-73
2023/12/31 05:20:20;;;;;;;47.60;18.40;;;;;;;0.98;89.49;100118.70;107908;1261;22527;-72
2023/12/31 05:23:11;;;;;;;42.50;15.80;;;;;;;0.94;89.56;100117.27;107745;1271;22549;-71
2023/12/31 05:26:02;;;;;;;44.90;18.80;;;;;;;0.93;89.67;100115.48;107671;1268;22534;-73
2023/12/31 05:28:52;;;;;;;;;;;;;;;0.91;89.41;100111.67;107684;1265;22628;-72
2023/12/31 05:31:43;;;;;;;71.80;27.40;;;;;;;0.85;89.35;100113.73;107643;1271;22587;-73
2023/12/31 05:34:32;;;;;;;;;;;;;;;0.83;89.59;100111.14;107801;1270;22629;-71
2023/12/31 05:37:22;;;;;;;60.70;27.00;;;;;;;0.80;89.52;100110.80;107698;1271;25135;-73
2023/12/31 05:40:14;;;;;;;64.30;26.50;;;;;;;0.78;89.68;100103.46;107929;1268;22616;-72
2023/12/31 05:43:06;;;;;;;53.80;21.50;;;;;;;0.77;89.73;100092.73;107773;1268;23547;-74
2023/12/31 05:45:57;;;;;;;39.30;16.90;;;;;;;0.76;89.87;100094.01;107657;1271;25378;-73
2023/12/31 05:48:48;;;;;;;38.10;16.90;;;;;;;0.74;89.84;100097.95;107665;1271;22591;-73
2023/12/31 05:51:39;;;;;;;39.50;15.20;;;;;;;0.72;90.08;100091.94;107705;1266;22656;-74
2023/12/31 05:54:30;;;;;;;40.80;16.10;;;;;;;0.71;90.19;100084.34;107737;1265;24375;-72
2023/12/31 05:57:21;;;;;;;40.30;16.30;;;;;;;0.69;90.42;100082.56;107720;1271;22748;-73
2023/12/31 06:00:15;;;;;;;36.70;15.60;;;;;;;0.69;90.60;100085.08;107658;1271;23000;-73
2023/12/31 06:03:06;;;;;;;41.80;16.50;;;;;;;0.69;90.65;100085.30;107663;1249;22616;-73
2023/12/31 06:05:57;;;;;;;39.80;16.50;;;;;;;0.67;90.87;100078.73;107662;1272;22577;-73
2023/12/31 06:08:49;;;;;;;38.90;14.30;;;;;;;0.66;90.97;100080.58;107577;1273;23859;-72
2023/12/31 06:11:40;;;;;;;43.10;15.40;;;;;;;0.66;91.03;100076.18;107565;1273;22489;-73
2023/12/31 06:14:30;;;;;;;35.50;13.20;;;;;;;0.64;91.03;100068.59;107799;1271;23159;-72
2023/12/31 06:17:22;;;;;;;42.80;17.20;;;;;;;0.62;91.13;100063.83;107826;1271;22552;-73
2023/12/31 06:20:14;;;;;;;36.30;15.60;;;;;;;0.61;91.34;100057.10;107713;1267;25411;-71
2023/12/31 06:23:05;;;;;;;37.40;16.40;;;;;;;0.61;91.47;100050.27;107654;1262;23045;-72
2023/12/31 06:25:56;;;;;;;43.00;16.40;;;;;;;0.60;91.76;100046.50;107637;1268;24194;-73
2023/12/31 06:28:48;;;;;;;47.20;17.60;;;;;;;0.59;91.97;100037.20;107670;1268;24223;-72
2023/12/31 06:31:39;;;;;;;40.40;15.10;;;;;;;0.59;92.28;100029.67;107666;1271;22663;-72
2023/12/31 06:34:30;;;;;;;38.20;15.80;;;;;;;0.60;92.53;100022.51;107691;1266;25339;-72
2023/12/31 06:37:21;;;;;;;42.10;14.90;;;;;;;0.60;92.63;100015.91;107730;1268;22583;-72
2023/12/31 06:40:13;;;;;;;41.70;17.30;;;;;;;0.60;92.79;100013.41;107744;1268;24364;-72
2023/12/31 06:43:04;;;;;;;47.90;21.20;;;;;;;0.59;92.82;100010.98;107694;1271;22617;-74
2023/12/31 06:45:55;;;;;;;52.60;21.60;;;;;;;0.60;93.02;100012.77;107828;1271;22730;-70
2023/12/31 06:48:44;;;;;;;;;;;;;;;0.62;93.21;100012.13;107711;1268;22504;-71
2023/12/31 06:51:35;;;;;;;55.50;20.50;;;;;;;0.62;93.14;100012.76;107719;1263;22534;-71
2023/12/31 06:54:26;;;;;;;58.20;24.50;;;;;;;0.62;93.32;100008.34;107772;1272;24249;-72
2023/12/31 06:57:30;;;;;;;57.20;23.20;;;;;;;0.61;93.54;100009.45;107644;1271;22538;-75
2023/12/31 07:00:22;;;;;;;50.80;22.80;;;;;;;0.61;93.74;100006.32;107878;1264;22619;-69
2023/12/31 07:03:13;;;;;;;51.50;21.60;;;;;;;0.63;93.78;100003.09;107817;1265;22571;-70
2023/12/31 07:06:05;;;;;;;48.90;21.40;;;;;;;0.65;93.87;100000.22;107634;1271;22590;-73
2023/12/31 07:08:55;;;;;;;52.00;21.90;;;;;;;0.67;93.89;99996.64;107621;1272;22534;-71
2023/12/31 07:11:46;;;;;;;53.50;21.20;;;;;;;0.68;94.02;100000.96;107661;1272;24052;-72
2023/12/31 07:14:38;;;;;;;53.30;22.90;;;;;;;0.68;94.12;100001.88;107512;1273;22884;-70
2023/12/31 07:17:28;;;;;;;47.50;20.90;;;;;;;0.70;94.09;100000.27;107664;1268;22570;-72
2023/12/31 07:20:20;;;;;;;52.60;20.80;;;;;;;0.73;94.12;99998.97;107700;1268;22717;-73
2023/12/31 07:23:11;;;;;;;51.40;20.10;;;;;;;0.75;94.14;99997.13;107849;1268;24212;-74
2023/12/31 07:26:03;;;;;;;51.30;20.30;;;;;;;0.76;94.20;100004.81;107715;1268;24255;-73
2023/12/31 07:28:55;;;;;;;43.50;19.00;;;;;;;0.77;94.29;100004.55;107646;1264;22549;-72
2023/12/31 07:31:46;;;;;;;45.90;18.60;;;;;;;0.79;94.23;100004.21;110908;1266;22239;-70
2023/12/31 07:34:37;;;;;;;48.10;20.10;;;;;;;0.81;94.18;100003.23;110907;1268;22647;-71
2023/12/31 07:37:28;;;;;;;58.70;23.70;;;;;;;0.83;94.39;99995.34;110925;1267;23175;-71
2023/12/31 07:40:17;;;;;;;;;;;;;;;0.86;94.33;99985.09;110945;1268;22501;-70
2023/12/31 07:43:08;;;;;;;49.30;23.30;;;;;;;0.88;94.51;99986.16;110927;1271;22138;-71
2023/12/31 07:45:59;;;;;;;47.40;22.10;;;;;;;0.91;94.59;99980.84;110922;1270;22137;-70
2023/12/31 07:48:51;;;;;;;38.90;18.70;;;;;;;0.95;94.55;99976.55;110989;1271;22617;-71
2023/12/31 07:51:42;;;;;;;41.70;18.00;;;;;;;0.98;94.79;99974.45;111036;1268;22207;-71
2023/12/31 07:54:33;;;;;;;41.90;18.20;;;;;;;1.00;94.90;99967.97;110905;1264;22121;-70
2023/12/31 07:57:23;;;;;;;50.80;19.40;;;;;;;1.02;95.02;99966.42;110895;1264;22815;-71
2023/12/31 08:00:16;;;;;;;42.90;20.10;;;;;;;1.05;95.11;99964.55;108808;1264;22520;-70
2023/12/31 08:03:07;;;;;;;50.00;18.60;;;;;;;1.10;95.27;99963.37;109196;1268;22744;-73
2023/12/31 08:05:58;;;;;;;41.60;18.40;;;;;;;1.14;95.34;99965.25;107705;1272;22640;-71
2023/12/31 08:08:49;;;;;;;47.30;20.40;;;;;;;1.17;95.41;99960.88;107664;1268;23151;-70
2023/12/31 08:11:40;;;;;;;50.10;23.30;;;;;;;1.20;95.54;99960.49;107536;1273;22542;-71
2023/12/31 08:14:31;;;;;;;45.20;22.40;;;;;;;1.23;95.70;99958.39;107785;1252;22545;-72
2023/12/31 08:17:24;;;;;;;53.40;24.50;;;;;;;1.27;95.92;99956.83;107711;1269;25373;-73
2023/12/31 08:20:15;;;;;;;56.80;27.30;;;;;;;1.31;96.10;99963.99;107641;1268;25400;-71
2023/12/31 08:23:06;;;;;;;52.60;26.70;;;;;;;1.34;96.57;99964.15;107734;1271;24345;-71
2023/12/31 08:25:58;;;;;;;48.00;23.00;;;;;;;1.38;96.55;99967.21;107827;1249;22530;-71
2023/12/31 08:28:49;;;;;;;48.30;21.90;;;;;;;1.41;96.74;99966.05;107711;1271;22590;-72
2023/12/31 08:31:40;;;;;;;45.80;19.80;;;;;;;1.45;96.81;99959.61;107737;1265;23953;-71
2023/12/31 08:34:30;;;;;;;41.80;17.20;;;;;;;1.48;96.79;99958.92;107719;1268;25279;-71
2023/12/31 08:37:21;;;;;;;37.80;15.70;;;;;;;1.51;96.82;99955.80;107721;1264;22934;-71
2023/12/31 08:40:13;;;;;;;43.30;20.10;;;;;;;1.54;96.90;99952.33;107764;1265;22732;-70
2023/12/31 08:43:04;;;;;;;48.80;22.60;;;;;;;1.59;96.91;99949.17;107786;1268;23868;-72
2023/12/31 08:45:55;;;;;;;51.40;22.20;;;;;;;1.62;96.99;99948.16;107627;1271;22701;-71
2023/12/31 08:48:46;;;;;;;40.60;19.80;;;;;;;1.67;96.90;99947.52;107667;1266;25558;-73
2023/12/31 08:51:35;;;;;;;;;;;;;;;1.69;97.12;99940.39;107754;1272;22714;-70
2023/12/31 08:54:26;;;;;;;42.40;18.70;;;;;;;1.71;97.24;99938.62;107642;1271;22597;-70
2023/12/31 08:57:17;;;;;;;40.60;18.10;;;;;;;1.75;97.36;99941.75;107732;1271;22532;-71
2023/12/31 09:00:11;;;;;;;43.90;19.50;;;;;;;1.78;97.41;99942.02;107793;1264;24382;-72
2023/12/31 09:03:02;;;;;;;44.10;20.60;;;;;;;1.81;97.57;99948.54;110937;1264;22140;-71
2023/12/31 09:05:53;;;;;;;41.20;19.00;;;;;;;1.86;97.65;99945.70;110893;1271;22139;-71
2023/12/31 09:08:43;;;;;;;44.10;22.20;;;;;;;1.90;97.60;99942.92;110924;1271;22187;-72
2023/12/31 09:11:34;;;;;;;56.80;26.40;;;;;;;1.95;97.81;99940.36;110894;1267;22851;-71
2023/12/31 09:14:25;;;;;;;54.50;26.70;;;;;;;2.01;97.93;99942.50;110917;1268;22295;-70
2023/12/31 09:17:16;;;;;;;53.40;23.50;;;;;;;2.07;97.94;99937.80;110882;1270;22450;-72
2023/12/31 09:20:08;;;;;;;49.20;22.70;;;;;;;2.14;98.12;99934.09;110925;1264;22345;-71
2023/12/31 09:23:00;;;;;;;45.00;19.10;;;;;;;2.21;98.11;99926.30;110916;1266;22144;-72
2023/12/31 09:25:51;;;;;;;50.30;21.40;;;;;;;2.25;98.02;99923.13;110915;1268;22241;-71
2023/12/31 09:28:44;;;;;;;40.80;17.40;;;;;;;2.32;98.04;99913.36;110920;1265;22171;-70
2023/12/31 09:31:37;;;;;;;39.90;16.90;;;;;;;2.38;98.11;99907.61;110911;1261;22242;-71
2023/12/31 09:36:07;;;;;;;45.60;19.20;;;;;;;2.50;98.20;99898.83;105473;1292;542980;-69
2023/12/31 09:38:58;;;;;;;40.60;17.60;;;;;;;2.54;98.21;99893.45;106988;1281;22585;-71
2023/12/31 09:41:49;;;;;;;;;;;;;;;2.59;98.27;99891.35;107012;1277;24354;-72
2023/12/31 09:44:41;;;;;;;42.70;17.50;;;;;;;2.63;98.32;99885.88;107397;1269;23634;-71
2023/12/31 09:47:35;;;;;;;49.00;20.30;;;;;;;2.68;98.40;99887.01;107344;1269;23013;-71
2023/12/31 09:50:26;;;;;;;42.80;19.40;;;;;;;2.73;98.44;99879.00;107535;1273;131407;-71
2023/12/31 09:53:18;;;;;;;42.50;19.90;;;;;;;2.78;98.65;99878.00;107536;1269;25479;-71
2023/12/31 09:56:10;;;;;;;45.80;20.60;;;;;;;2.82;98.76;99870.96;107536;1268;23444;-71
2023/12/31 09:59:02;;;;;;;43.30;19.10;;;;;;;2.86;98.78;99872.59;107507;1272;22700;-71
2023/12/31 10:01:56;;;;;;;46.50;18.60;;;;;;;2.91;98.90;99869.69;107643;1272;22572;-72
2023/12/31 10:04:48;;;;;;;48.10;16.60;;;;;;;2.95;98.97;99864.83;110674;1268;22279;-69
2023/12/31 10:07:39;;;;;;;46.30;18.10;;;;;;;3.00;99.01;99862.48;110731;1272;22857;-69
2023/12/31 10:10:30;;;;;;;50.50;19.40;;;;;;;3.06;98.90;99863.10;110699;1269;22314;-70
2023/12/31 10:13:21;;;;;;;49.30;18.50;;;;;;;3.10;98.92;99858.50;110668;1274;23014;-69
2023/12/31 10:16:16;;;;;;;41.60;17.90;;;;;;;3.16;98.87;99855.43;110667;1274;23118;-70
2023/12/31 10:19:07;;;;;;;46.70;18.10;;;;;;;3.21;98.87;99847.38;110695;1272;22188;-70
2023/12/31 10:21:58;;;;;;;48.70;18.20;;;;;;;3.27;98.96;99845.25;110672;1268;22224;-68
2023/12/31 10:24:48;;;;;;;41.80;16.80;;;;;;;3.33;99.10;99848.84;110678;1272;22785;-70
2023/12/31 10:27:39;;;;;;;39.60;16.00;;;;;;;3.40;98.92;99848.23;110656;1269;22158;-71
2023/12/31 10:30:31;;;;;;;40.30;15.00;;;;;;;3.46;98.60;99843.40;110522;1267;23081;-73
2023/12/31 10:33:29;;;;;;;38.10;15.20;;;;;;;3.51;98.55;99836.47;110497;1267;22192;-71
2023/12/31 10:36:23;;;;;;;31.80;14.10;;;;;;;3.56;98.37;99828.52;110439;1270;22294;-71
2023/12/31 10:39:28;;;;;;;42.60;15.30;;;;;;;3.59;98.27;99822.12;110487;1270;22293;-70
2023/12/31 10:42:18;;;;;;;36.40;16.30;;;;;;;3.63;98.22;99815.11;110469;1270;22386;-71
2023/12/31 10:45:11;;;;;;;34.00;15.00;;;;;;;3.66;98.33;99809.17;110491;1270;22480;-72
2023/12/31 10:48:05;;;;;;;34.60;14.80;;;;;;;3.71;98.38;99809.17;110740;1267;22507;-71
2023/12/31 10:50:56;;;;;;;42.90;16.20;;;;;;;3.75;98.31;99798.79;110725;1267;22217;-74
2023/12/31 10:53:49;;;;;;;38.10;16.40;;;;;;;3.79;98.30;99789.45;110725;1273;22224;-71
2023/12/31 10:56:42;;;;;;;40.30;15.90;;;;;;;3.83;98.18;99783.41;110725;1270;22233;-74
2023/12/31 10:59:35;;;;;;;44.00;16.20;;;;;;;3.86;98.21;99777.68;110762;1271;22307;-71
2023/12/31 11:02:28;;;;;;;42.10;16.90;;;;;;;3.90;98.20;99769.38;110697;1266;22229;-71
2023/12/31 11:05:21;;;;;;;36.40;14.10;;;;;;;3.94;98.22;99767.01;110709;1268;22628;-71
2023/12/31 11:08:15;;;;;;;37.40;15.50;;;;;;;3.98;98.27;99766.08;110702;1271;23433;-71
2023/12/31 11:11:06;;;;;;;36.60;13.70;;;;;;;4.03;98.27;99768.14;110719;1262;22268;-71
2023/12/31 11:13:59;;;;;;;36.30;15.00;;;;;;;4.07;98.22;99764.20;110724;1267;22212;-71
2023/12/31 11:17:02;;;;;;;40.40;16.30;;;;;;;4.11;98.10;99751.06;110724;1273;22366;-71
2023/12/31 11:20:13;;;;;;;42.20;14.40;;;;;;;4.15;98.18;99744.90;110744;1266;23066;-71
2023/12/31 11:23:17;;;;;;;35.40;15.60;;;;;;;4.20;98.11;99744.35;110746;1267;22230;-75
2023/12/31 11:26:09;;;;;;;36.00;14.30;;;;;;;4.24;98.01;99742.73;110717;1273;22905;-71
2023/12/31 11:29:03;;;;;;;32.70;13.60;;;;;;;4.28;98.02;99732.64;110719;1269;23089;-70
2023/12/31 11:31:54;;;;;;;35.60;15.50;;;;;;;4.32;97.90;99728.86;110715;1268;22195;-70
2023/12/31 11:34:50;;;;;;;35.10;13.60;;;;;;;4.36;97.94;99718.05;110711;1266;22181;-70
2023/12/31 11:37:41;;;;;;;34.00;13.80;;;;;;;4.41;97.95;99710.13;110742;1268;22224;-70
2023/12/31 11:40:36;;;;;;;36.40;14.80;;;;;;;4.45;97.79;99703.36;110690;1266;23058;-70
2023/12/31 11:43:36;;;;;;;37.10;14.80;;;;;;;4.48;97.67;99699.20;110752;1268;22565;-72
2023/12/31 11:46:42;;;;;;;34.70;13.80;;;;;;;4.51;97.62;99690.87;110706;1267;23069;-71
2023/12/31 11:49:34;;;;;;;32.90;14.70;;;;;;;4.55;97.56;99676.30;110676;1265;22262;-71
2023/12/31 11:52:39;;;;;;;32.20;13.70;;;;;;;4.58;97.64;99670.08;110710;1262;22480;-71
2023/12/31 11:55:38;;;;;;;40.20;15.90;;;;;;;4.62;97.64;99662.73;110660;1269;22223;-70
2023/12/31 11:58:30;;;;;;;38.40;15.60;;;;;;;4.64;97.54;99655.77;110720;1268;22709;-72
2023/12/31 12:01:20;;;;;;;40.80;17.00;;;;;;;4.69;97.53;99655.05;110702;1270;22292;-71
2023/12/31 12:04:11;;;;;;;48.20;20.10;;;;;;;4.72;97.57;99656.60;110698;1259;22120;-72
2023/12/31 12:07:03;;;;;;;44.10;18.20;;;;;;;4.76;97.60;99651.91;110660;1269;22907;-72
2023/12/31 12:09:54;;;;;;;41.60;17.50;;;;;;;4.80;97.60;99634.31;110706;1270;22176;-72
2023/12/31 12:12:45;;;;;;;44.40;18.50;;;;;;;4.83;97.55;99624.30;110680;1266;23223;-70
2023/12/31 12:15:37;;;;;;;44.10;17.60;;;;;;;4.88;97.53;99620.57;110666;1266;22202;-70
2023/12/31 12:18:27;;;;;;;42.60;16.00;;;;;;;4.91;97.49;99613.98;110729;1266;23188;-73
2023/12/31 12:21:18;;;;;;;36.70;16.50;;;;;;;4.94;97.34;99607.65;110677;1266;22945;-70
2023/12/31 12:24:08;;;;;;;;;;;;;;;4.98;97.30;99599.00;110725;1266;22506;-70
2023/12/31 12:27:01;;;;;;;37.50;16.30;;;;;;;5.00;97.27;99590.91;110715;1273;22391;-70
2023/12/31 12:29:51;;;;;;;36.00;14.90;;;;;;;5.03;97.30;99581.92;110731;1271;22177;-72
2023/12/31 12:32:47;;;;;;;36.80;15.20;;;;;;;5.08;97.38;99576.06;110751;1273;22220;-71
2023/12/31 12:35:42;;;;;;;41.20;17.00;;;;;;;5.12;97.46;99569.34;110636;1270;22197;-71
2023/12/31 12:38:32;;;;;;;40.40;16.40;;;;;;;5.15;97.32;99555.27;110740;1268;22378;-71
2023/12/31 12:41:24;;;;;;;37.50;14.70;;;;;;;5.18;97.30;99544.55;110690;1266;22323;-71
2023/12/31 12:44:16;;;;;;;37.70;15.70;;;;;;;5.23;97.43;99535.64;110696;1268;22204;-70
2023/12/31 12:47:07;;;;;;;33.70;13.50;;;;;;;5.28;97.41;99526.81;110739;1262;22227;-72
2023/12/31 12:49:58;;;;;;;29.70;11.70;;;;;;;5.32;97.41;99524.66;110772;1268;22644;-71
2023/12/31 12:52:50;;;;;;;36.20;12.80;;;;;;;5.37;97.40;99532.69;110729;1273;23977;-71
2023/12/31 12:55:40;;;;;;;32.30;13.80;;;;;;;5.42;97.38;99536.52;110687;1268;22180;-70
2023/12/31 12:58:29;;;;;;;;;;;;;;;5.47;97.45;99534.08;110747;1266;23252;-72
2023/12/31 13:01:20;;;;;;;49.00;18.40;;;;;;;5.50;97.30;99526.73;110717;1269;22916;-69
2023/12/31 13:04:12;;;;;;;43.30;19.20;;;;;;;5.54;97.18;99523.97;110725;1270;22127;-70
2023/12/31 13:07:03;;;;;;;39.80;16.30;;;;;;;5.56;97.20;99522.61;110734;1268;22821;-71
2023/12/31 13:09:54;;;;;;;35.70;13.90;;;;;;;5.58;97.13;99523.38;110733;1267;22356;-70
2023/12/31 13:12:44;;;;;;;36.50;14.60;;;;;;;5.61;97.14;99523.86;110713;1269;22207;-72